createdAt,value
2018-06-04T00:03:50.655Z,3.91
2018-06-04T00:09:45.671Z,5.58
2018-06-04T00:15:40.740Z,5.65
2018-06-04T00:21:35.699Z,3.32
2018-06-04T00:27:30.689Z,3.56
2018-06-04T00:33:25.722Z,5.44
2018-06-04T00:39:20.736Z,4.29
2018-06-04T00:45:15.702Z,2.99
2018-06-04T00:51:10.682Z,4.6
2018-06-04T00:57:05.671Z,4.73
2018-06-04T01:03:00.701Z,5.52
2018-06-04T01:08:55.701Z,10.37
2018-06-04T01:14:50.703Z,7.58
2018-06-04T01:20:45.781Z,6.79
2018-06-04T01:26:40.704Z,4.82
2018-06-04T01:32:35.713Z,4.72
2018-06-04T01:38:30.705Z,4.96
2018-06-04T01:44:25.760Z,5.12
2018-06-04T01:50:20.721Z,4.44
2018-06-04T01:56:15.738Z,4.7
2018-06-04T02:02:10.710Z,3.73
2018-06-04T02:08:05.750Z,4.44
2018-06-04T02:14:00.728Z,4.07
2018-06-04T02:19:55.734Z,3.8
2018-06-04T02:25:50.762Z,4.55
2018-06-04T02:31:45.747Z,5.19
2018-06-04T02:37:40.736Z,5.36
2018-06-04T02:43:35.755Z,4.37
2018-06-04T02:49:30.783Z,4.43
2018-06-04T02:55:25.760Z,5.81
2018-06-04T03:01:20.794Z,4.08
2018-06-04T03:07:15.784Z,4.53
2018-06-04T03:13:10.825Z,5.09
2018-06-04T03:19:05.795Z,5.35
2018-06-04T03:25:00.774Z,5.45
2018-06-04T03:30:55.834Z,4.58
2018-06-04T03:36:50.749Z,4.32
2018-06-04T03:42:45.754Z,5
2018-06-04T03:48:40.807Z,5.72
2018-06-04T03:54:35.822Z,4.3
2018-06-04T04:00:30.764Z,5.55
2018-06-04T04:06:25.818Z,3.92
2018-06-04T04:12:20.852Z,4.75
2018-06-04T04:18:15.846Z,4.75
2018-06-04T04:24:10.827Z,5.07
2018-06-04T04:30:05.807Z,11.23
2018-06-04T04:36:00.860Z,13.72
2018-06-04T04:41:55.820Z,10.4
2018-06-04T04:47:50.800Z,10.13
2018-06-04T04:53:45.825Z,9.03
2018-06-04T04:59:40.890Z,6.07
2018-06-04T05:05:35.800Z,6.19
2018-06-04T05:11:30.858Z,6.3
2018-06-04T05:17:25.842Z,5.9
2018-06-04T05:23:20.928Z,7.46
2018-06-04T05:29:15.847Z,7.11
2018-06-04T05:35:10.851Z,5.7
2018-06-04T05:41:05.894Z,5.76
2018-06-04T05:47:03.841Z,6.39
2018-06-04T05:52:55.869Z,6.75
2018-06-04T05:58:50.853Z,6.41
2018-06-04T06:04:45.852Z,9.43
2018-06-04T06:10:40.844Z,6.39
2018-06-04T06:16:35.851Z,8.15
2018-06-04T06:22:31.013Z,5.69
2018-06-04T06:28:25.863Z,8.65
2018-06-04T06:34:20.944Z,6.38
2018-06-04T06:40:15.926Z,5.45
2018-06-04T06:46:10.887Z,7.48
2018-06-04T06:52:05.935Z,7.06
2018-06-04T06:58:00.893Z,6.19
2018-06-04T07:03:55.892Z,5.21
2018-06-04T07:09:50.913Z,4.81
2018-06-04T07:15:45.924Z,5.43
2018-06-04T07:21:40.900Z,5.5
2018-06-04T07:27:35.922Z,5.14
2018-06-04T07:33:30.939Z,7.56
2018-06-04T07:39:25.902Z,5.33
2018-06-04T07:45:20.928Z,7.29
2018-06-04T07:51:15.947Z,16.27
2018-06-04T07:57:10.988Z,7.2
2018-06-04T08:03:05.943Z,7.59
2018-06-04T08:09:00.922Z,5.96
2018-06-04T08:14:56.030Z,18.82
2018-06-04T08:20:50.969Z,6.69
2018-06-04T08:26:46.062Z,8.75
2018-06-04T08:32:40.974Z,10.02
2018-06-04T08:38:36.116Z,5.03
2018-06-04T08:44:30.971Z,4.25
2018-06-04T08:50:26.146Z,6.07
2018-06-04T08:56:21.059Z,6.82
2018-06-04T09:02:16.699Z,8.44
2018-06-04T09:08:10.981Z,8.58
2018-06-04T09:14:06.738Z,7.47
2018-06-04T09:20:00.992Z,6.57
2018-06-04T09:25:56.012Z,4.84
2018-06-04T09:31:51.012Z,6.05
2018-06-04T09:37:45.977Z,5.47
2018-06-04T09:43:40.994Z,6.5
2018-06-04T09:49:36.007Z,7.09
2018-06-04T09:55:30.998Z,5.14
2018-06-04T10:01:25.995Z,5.2
2018-06-04T10:07:21.855Z,5.43
2018-06-04T10:13:16.024Z,6.26
2018-06-04T10:19:11.025Z,6.39
2018-06-04T10:25:06.016Z,5.94
2018-06-04T10:31:01.021Z,5.62
2018-06-04T10:36:56.051Z,5.24
2018-06-04T10:42:51.052Z,5.35
2018-06-04T10:48:46.017Z,4.83
2018-06-04T10:54:41.036Z,6.11
2018-06-04T11:00:36.215Z,5.36
2018-06-04T11:06:31.070Z,4.04
2018-06-04T11:12:26.020Z,6.69
2018-06-04T11:18:21.063Z,4.08
2018-06-04T11:24:16.074Z,6.03
2018-06-04T11:30:11.077Z,4.95
2018-06-04T11:36:06.068Z,7.34
2018-06-04T11:42:01.129Z,5.81
2018-06-04T11:47:56.113Z,7.71
2018-06-04T11:53:51.139Z,7.57
2018-06-04T11:59:46.123Z,9.98
2018-06-04T12:05:41.077Z,5.26
2018-06-04T12:11:36.133Z,6.98
2018-06-04T12:17:31.085Z,7.04
2018-06-04T12:23:26.071Z,5.33
2018-06-04T12:29:21.079Z,5.42
2018-06-04T12:35:16.112Z,6.52
2018-06-04T12:41:11.081Z,7.1
2018-06-04T12:47:06.067Z,9.05
2018-06-04T12:53:01.078Z,4.89
2018-06-04T12:58:56.108Z,7.55
2018-06-04T13:04:51.280Z,5.94
2018-06-04T13:10:46.109Z,5.64
2018-06-04T13:16:41.156Z,5.84
2018-06-04T13:22:36.175Z,14.94
2018-06-04T13:28:31.095Z,10.55
2018-06-04T13:34:26.141Z,7.51
2018-06-04T13:40:21.590Z,5.53
2018-06-04T13:46:16.414Z,4.77
2018-06-04T13:52:11.151Z,3.99
2018-06-04T13:58:06.147Z,3.88
2018-06-04T14:04:01.147Z,5.01
2018-06-04T14:09:56.280Z,4.53
2018-06-04T14:15:51.152Z,5.35
2018-06-04T14:21:46.159Z,4.47
2018-06-04T14:27:41.388Z,4.98
2018-06-04T14:33:36.309Z,6.55
2018-06-04T14:39:31.204Z,6.96
2018-06-04T14:45:26.140Z,7.61
2018-06-04T14:51:21.180Z,7.5
2018-06-04T14:57:16.142Z,10.38
2018-06-04T15:03:11.443Z,7.17
2018-06-04T15:09:06.389Z,6.43
2018-06-04T15:15:01.286Z,6.9
2018-06-04T15:20:56.345Z,10.27
2018-06-04T15:26:51.163Z,7.77
2018-06-04T15:32:46.193Z,9.56
2018-06-04T15:38:41.197Z,7.57
2018-06-04T15:44:36.245Z,8.82
2018-06-04T15:50:31.590Z,9.01
2018-06-04T15:56:26.241Z,7.85
2018-06-04T16:02:21.235Z,10.77
2018-06-04T16:08:16.232Z,15.02
2018-06-04T16:14:11.197Z,10.32
2018-06-04T16:20:06.428Z,8.25
2018-06-04T16:26:01.232Z,6.85
2018-06-04T16:31:56.205Z,7.23
2018-06-04T16:37:51.206Z,6.93
2018-06-04T16:43:46.282Z,8.09
2018-06-04T16:49:41.238Z,26.68
2018-06-04T16:55:36.256Z,32.99
2018-06-04T17:01:31.705Z,6.73
2018-06-04T17:07:26.216Z,10.35
2018-06-04T17:13:21.269Z,6.57
2018-06-04T17:19:16.487Z,6.53
2018-06-04T17:25:11.384Z,4
2018-06-04T17:31:06.405Z,4.02
2018-06-04T17:37:01.341Z,6.46
2018-06-04T17:42:56.291Z,4.32
2018-06-04T17:48:51.229Z,3.65
2018-06-04T17:54:46.318Z,6.05
2018-06-04T18:00:41.259Z,6.85
2018-06-04T18:06:36.460Z,4.81
2018-06-04T18:12:31.284Z,3.21
2018-06-04T18:18:26.347Z,3.72
2018-06-04T18:24:21.271Z,3.94
2018-06-04T18:30:16.303Z,4.92
2018-06-04T18:36:11.309Z,3.03
2018-06-04T18:42:06.301Z,1.91
2018-06-04T18:48:01.349Z,2.7
2018-06-04T18:53:56.333Z,3
2018-06-04T18:59:51.328Z,1.95
2018-06-04T19:05:47.058Z,2.16
2018-06-04T19:11:41.658Z,3.36
2018-06-04T19:17:36.334Z,2.17
2018-06-04T19:23:31.391Z,2.4
2018-06-04T19:29:26.309Z,2.39
2018-06-04T19:35:21.366Z,2.11
2018-06-04T19:41:17.058Z,2.29
2018-06-04T19:47:11.394Z,1.83
2018-06-04T19:53:06.323Z,2.07
2018-06-04T19:59:01.372Z,2.58
2018-06-04T20:04:56.333Z,2.72
2018-06-04T20:10:51.350Z,1.91
2018-06-04T20:16:46.358Z,2.08
2018-06-04T20:22:41.333Z,1.72
2018-06-04T20:28:36.374Z,3.6
2018-06-04T20:34:31.352Z,2.45
2018-06-04T20:40:27.176Z,2.58
2018-06-04T20:46:21.850Z,2.53
2018-06-04T20:52:16.671Z,2.5
2018-06-04T20:58:11.366Z,3.44
2018-06-04T21:04:06.568Z,2.16
2018-06-04T21:10:01.476Z,3.47
2018-06-04T21:15:56.401Z,1.82
2018-06-04T21:21:51.443Z,2.94
2018-06-04T21:27:46.377Z,2.5
2018-06-04T21:33:41.394Z,2.91
2018-06-04T21:39:36.384Z,3.15
2018-06-04T21:45:31.473Z,2.21
2018-06-04T21:51:26.403Z,2.28
2018-06-04T21:57:21.421Z,2.07
2018-06-04T22:03:16.449Z,2.39
2018-06-04T22:09:11.401Z,2.17
2018-06-04T22:15:06.383Z,3.18
2018-06-04T22:21:01.407Z,2.15
2018-06-04T22:26:56.617Z,2.05
2018-06-04T22:32:52.140Z,4.67
2018-06-04T22:44:41.446Z,2.13
2018-06-04T22:44:41.470Z,3.19
2018-06-04T22:50:36.415Z,2.85
2018-06-04T22:56:31.497Z,3.22
2018-06-04T23:02:26.455Z,2.62
2018-06-04T23:08:21.525Z,2.59
2018-06-04T23:14:16.462Z,2.85
2018-06-04T23:20:11.441Z,3.96
2018-06-04T23:26:06.496Z,2.84
2018-06-04T23:32:01.523Z,5.62
2018-06-04T23:37:56.483Z,3.71
2018-06-04T23:43:51.468Z,2.47
2018-06-04T23:49:46.477Z,2.62
2018-06-04T23:55:41.489Z,1.95
